createdAt,value
2023-06-19T00:00:01.563Z,20.6
2023-06-19T00:10:02.246Z,20.5
2023-06-19T00:20:02.000Z,20.8
2023-06-19T00:30:01.068Z,20.7
2023-06-19T00:40:01.060Z,20.9
2023-06-19T00:50:01.249Z,21.1
2023-06-19T01:00:01.186Z,21.0
2023-06-19T01:10:01.115Z,20.7
2023-06-19T01:20:02.515Z,20.5
2023-06-19T01:30:02.198Z,20.4
2023-06-19T01:40:01.254Z,20.3
2023-06-19T01:50:01.027Z,20.4
2023-06-19T02:00:01.279Z,20.4
2023-06-19T02:10:01.053Z,20.3
2023-06-19T02:20:01.445Z,20.3
2023-06-19T02:30:01.001Z,20.3
2023-06-19T02:40:01.606Z,20.1
2023-06-19T02:50:01.056Z,20.2
2023-06-19T03:00:01.275Z,20.2
2023-06-19T03:10:00.196Z,20.1
2023-06-19T03:20:01.042Z,20.3
2023-06-19T03:30:01.268Z,20.4
2023-06-19T03:40:01.413Z,20.7
2023-06-19T03:50:11.462Z,21.0
2023-06-19T04:00:01.026Z,21.0
2023-06-19T04:10:01.092Z,20.7
2023-06-19T04:20:01.349Z,21.0
2023-06-19T04:30:01.026Z,20.4
2023-06-19T04:40:01.340Z,20.7
2023-06-19T04:50:01.082Z,20.9
2023-06-19T05:00:01.298Z,20.8
2023-06-19T05:10:01.057Z,21.4
2023-06-19T05:20:01.074Z,21.1
2023-06-19T05:30:01.291Z,21.4
2023-06-19T05:40:01.089Z,21.8
2023-06-19T05:50:01.200Z,21.9
2023-06-19T06:00:01.157Z,22.2
2023-06-19T06:10:01.261Z,21.7
2023-06-19T06:20:01.344Z,21.7
2023-06-19T06:30:01.039Z,21.8
2023-06-19T06:50:01.051Z,22.7
2023-06-19T07:00:01.192Z,22.7
2023-06-19T07:10:01.079Z,22.6
2023-06-19T07:30:01.134Z,23.5
2023-06-19T07:40:01.120Z,24.6
2023-06-19T07:50:01.068Z,25.2
2023-06-19T08:00:01.990Z,26.0
2023-06-19T08:10:11.973Z,25.5
2023-06-19T08:20:01.022Z,25.0
2023-06-19T08:30:01.070Z,25.2
2023-06-19T08:40:01.296Z,25.7
2023-06-19T08:50:02.706Z,25.9
2023-06-19T09:00:01.037Z,25.8
2023-06-19T09:10:01.030Z,26.0
2023-06-19T09:20:01.060Z,26.6
2023-06-19T09:30:01.044Z,26.4
2023-06-19T09:40:01.056Z,27.0
2023-06-19T09:50:01.095Z,27.6
2023-06-19T10:00:02.716Z,27.4
2023-06-19T10:10:01.272Z,26.8
2023-06-19T10:20:01.558Z,27.1
2023-06-19T10:30:06.558Z,26.8
2023-06-19T10:40:01.123Z,26.9
2023-06-19T10:50:01.111Z,27.0
2023-06-19T11:00:01.885Z,27.1
2023-06-19T11:10:01.015Z,27.2
2023-06-19T11:20:02.096Z,27.0
2023-06-19T11:30:01.033Z,27.5
2023-06-19T11:40:01.066Z,28.4
2023-06-19T11:50:01.053Z,29.1
2023-06-19T12:00:01.215Z,31.6
2023-06-19T12:10:03.506Z,30.7
2023-06-19T12:20:02.335Z,31.3
2023-06-19T12:30:01.384Z,32.5
2023-06-19T12:40:00.849Z,32.8
2023-06-19T12:50:01.006Z,33.8
2023-06-19T13:00:01.307Z,34.3
2023-06-19T13:10:01.124Z,32.9
2023-06-19T13:20:01.086Z,34.0
2023-06-19T13:30:01.027Z,33.4
2023-06-19T13:40:01.395Z,35.4
2023-06-19T13:50:01.422Z,35.3
2023-06-19T14:00:01.429Z,34.1
2023-06-19T14:10:02.292Z,33.9
2023-06-19T14:20:01.565Z,33.7
2023-06-19T14:30:01.480Z,33.6
2023-06-19T14:40:01.182Z,34.0
2023-06-19T14:50:01.070Z,34.8
2023-06-19T15:00:01.112Z,35.0
2023-06-19T15:10:02.469Z,36.1
2023-06-19T15:20:01.370Z,35.7
2023-06-19T15:30:01.148Z,33.8
2023-06-19T15:40:01.540Z,35.0
2023-06-19T15:50:01.079Z,33.2
2023-06-19T16:00:01.437Z,34.8
2023-06-19T16:10:01.065Z,33.4
2023-06-19T16:20:01.104Z,33.7
2023-06-19T16:30:01.020Z,33.9
2023-06-19T16:40:01.122Z,32.3
2023-06-19T16:50:01.089Z,31.3
2023-06-19T17:00:01.400Z,31.1
2023-06-19T17:10:01.317Z,31.1
2023-06-19T17:20:01.115Z,30.3
2023-06-19T17:30:01.275Z,30.5
2023-06-19T17:40:01.071Z,29.8
2023-06-19T17:50:01.284Z,29.1
2023-06-19T18:00:03.353Z,29.2
2023-06-19T18:10:01.044Z,28.8
2023-06-19T18:20:01.463Z,28.7
2023-06-19T18:30:04.221Z,28.3
2023-06-19T18:40:02.714Z,28.3
2023-06-19T18:50:01.076Z,27.9
2023-06-19T19:00:01.173Z,27.7
2023-06-19T19:10:01.161Z,27.2
2023-06-19T19:20:01.591Z,27.2
2023-06-19T19:30:01.359Z,27.0
2023-06-19T19:40:00.482Z,27.1
2023-06-19T19:50:01.018Z,26.6
2023-06-19T20:00:03.884Z,26.4
2023-06-19T20:10:00.999Z,26.3
2023-06-19T20:20:00.462Z,26.2
2023-06-19T20:30:01.534Z,26.0
2023-06-19T20:50:01.420Z,25.5
2023-06-19T21:00:01.363Z,25.4
2023-06-19T21:10:01.250Z,25.5
2023-06-19T21:20:01.513Z,25.3
2023-06-19T21:30:01.047Z,25.3
2023-06-19T21:40:01.258Z,24.8
2023-06-19T21:50:01.324Z,24.8
2023-06-19T22:00:01.359Z,24.8
2023-06-19T22:10:01.338Z,24.7
2023-06-19T22:20:01.351Z,24.5
2023-06-19T22:30:01.331Z,24.2
2023-06-19T22:40:01.389Z,24.1
2023-06-19T22:50:01.289Z,24.1
2023-06-19T23:00:03.147Z,24.0
2023-06-19T23:10:01.054Z,24.0
2023-06-19T23:20:01.292Z,23.7
2023-06-19T23:30:01.233Z,23.7
2023-06-19T23:40:01.021Z,23.4
2023-06-19T23:50:02.113Z,23.2
